Time;durP1;ratioP1;P1;durP2;ratioP2;P2;SDS_P1;SDS_P2;PMS_P1;PMS_P2;Temp;Humidity;BMP_temperature;BMP_pressure;BME280_temperature;BME280_humidity;BME280_pressure;Samples;Min_cycle;Max_cycle;Signal;HPM_P1;HPM_P2
2021/10/07 00:00:42;;;;;;;5.55;2.63;;;14.90;73.60;;;;;;5033556;28;20597;-75
2021/10/07 00:03:08;;;;;;;6.03;2.78;;;14.80;73.70;;;;;;5032640;28;20032;-72
2021/10/07 00:05:34;;;;;;;4.45;2.60;;;14.70;73.70;;;;;;5033023;28;20037;-72
2021/10/07 00:08:00;;;;;;;4.68;2.83;;;14.70;74.00;;;;;;5032017;28;20078;-73
2021/10/07 00:10:26;;;;;;;5.38;2.92;;;14.70;74.40;;;;;;5032696;28;20435;-75
2021/10/07 00:12:52;;;;;;;5.32;3.38;;;14.70;74.60;;;;;;5033001;28;20032;-71
2021/10/07 00:15:18;;;;;;;8.07;3.13;;;14.70;74.40;;;;;;5032420;28;20543;-72
2021/10/07 00:17:46;;;;;;;6.25;2.90;;;14.70;74.50;;;;;;5032727;28;20105;-73
2021/10/07 00:20:14;;;;;;;4.97;2.42;;;14.60;74.40;;;;;;5031664;28;20022;-72
2021/10/07 00:22:41;;;;;;;6.05;2.53;;;14.60;74.30;;;;;;5032062;28;20048;-75
2021/10/07 00:25:08;;;;;;;3.38;2.40;;;14.70;74.10;;;;;;5025666;28;20090;-75
2021/10/07 00:27:37;;;;;;;5.07;2.38;;;14.70;73.80;;;;;;5030307;28;20025;-73
2021/10/07 00:30:17;;;;;;;7.20;2.55;;;14.70;73.80;;;;;;5031838;28;20108;-72
2021/10/07 00:33:11;;;;;;;4.43;2.08;;;14.70;73.70;;;;;;5032076;28;20396;-76
2021/10/07 00:41:01;;;;;;;4.55;2.65;;;14.80;73.20;;;;;;5031986;28;20085;-74
2021/10/07 00:43:27;;;;;;;9.48;2.65;;;14.70;73.10;;;;;;5032682;28;20065;-74
2021/10/07 00:45:56;;;;;;;6.13;3.00;;;14.70;73.40;;;;;;5032331;28;20481;-74
2021/10/07 00:48:22;;;;;;;5.28;3.03;;;14.70;73.90;;;;;;5031462;28;20036;-73
2021/10/07 00:50:48;;;;;;;5.07;2.92;;;14.60;75.30;;;;;;5036440;28;20390;-74
2021/10/07 00:53:16;;;;;;;6.78;3.10;;;14.60;74.40;;;;;;5030360;28;20091;-74
2021/10/07 00:55:42;;;;;;;4.88;3.28;;;14.50;74.60;;;;;;5030722;28;20034;-72
2021/10/07 00:58:09;;;;;;;4.57;2.90;;;14.50;74.70;;;;;;5013083;28;20029;-72
2021/10/07 01:00:34;;;;;;;5.75;3.20;;;14.60;74.50;;;;;;5030399;28;20028;-73
2021/10/07 01:03:02;;;;;;;5.95;3.40;;;14.60;74.60;;;;;;5030156;28;20045;-70
2021/10/07 01:05:46;;;;;;;4.30;2.80;;;14.60;74.40;;;;;;5031396;28;20013;-75
2021/10/07 01:08:12;;;;;;;5.20;3.13;;;14.60;74.40;;;;;;5028099;28;20483;-75
2021/10/07 01:10:37;;;;;;;5.35;3.13;;;14.60;74.80;;;;;;5031059;28;20052;-75
2021/10/07 01:13:04;;;;;;;5.63;3.33;;;14.60;74.10;;;;;;5030309;28;20044;-72
2021/10/07 01:18:14;;;;;;;4.65;2.95;;;14.60;74.20;;;;;;5030235;28;20112;-73
2021/10/07 01:20:41;;;;;;;5.55;3.10;;;14.70;74.30;;;;;;5030788;28;20100;-74
2021/10/07 01:23:07;;;;;;;4.72;3.08;;;14.70;74.30;;;;;;5029820;28;20029;-74
2021/10/07 01:25:34;;;;;;;8.05;4.13;;;14.60;74.40;;;;;;5018926;28;20048;-75
2021/10/07 01:28:00;;;;;;;5.78;3.47;;;14.60;75.00;;;;;;5029874;28;20454;-74
2021/10/07 01:30:27;;;;;;;5.05;3.20;;;14.60;75.10;;;;;;5038265;28;20022;-74
2021/10/07 01:32:56;;;;;;;5.82;3.38;;;14.60;75.20;;;;;;5040448;28;20025;-75
2021/10/07 01:35:23;;;;;;;6.45;3.33;;;14.60;75.50;;;;;;5030184;28;20125;-72
2021/10/07 01:37:49;;;;;;;6.25;2.75;;;14.60;75.30;;;;;;5030297;28;20037;-71
2021/10/07 01:40:15;;;;;;;5.75;2.65;;;14.50;75.10;;;;;;5030080;28;20029;-73
2021/10/07 01:42:42;;;;;;;4.60;2.70;;;14.50;75.20;;;;;;5031248;28;20057;-75
2021/10/07 01:45:10;;;;;;;6.57;3.60;;;14.50;75.50;;;;;;5028412;28;20048;-74
2021/10/07 01:47:36;;;;;;;4.38;2.38;;;14.50;75.50;;;;;;5031378;28;20041;-72
2021/10/07 01:50:04;;;;;;;9.35;4.13;;;14.50;75.30;;;;;;5030003;28;20032;-68
2021/10/07 01:52:29;;;;;;;7.28;4.10;;;14.40;75.60;;;;;;5030087;28;20033;-75
2021/10/07 01:54:55;;;;;;;22.17;10.73;;;14.40;75.70;;;;;;5031021;28;20037;-73
2021/10/07 01:57:21;;;;;;;4.90;2.50;;;14.50;75.70;;;;;;5030570;28;20018;-73
2021/10/07 01:59:46;;;;;;;5.88;2.78;;;14.50;75.30;;;;;;5030626;28;20029;-72
2021/10/07 02:02:12;;;;;;;5.97;2.78;;;14.50;75.10;;;;;;5031211;28;20025;-73
2021/10/07 02:04:38;;;;;;;6.65;3.40;;;14.50;75.10;;;;;;5034137;28;20053;-74
2021/10/07 02:07:04;;;;;;;5.90;3.35;;;14.50;75.30;;;;;;5032312;28;20025;-72
2021/10/07 02:09:29;;;;;;;6.82;2.97;;;14.60;75.40;;;;;;5032477;28;20053;-72
2021/10/07 02:11:55;;;;;;;8.52;3.25;;;14.50;75.00;;;;;;5021000;28;20033;-72
2021/10/07 02:14:22;;;;;;;9.23;3.50;;;14.50;75.10;;;;;;5032012;28;20029;-71
2021/10/07 02:16:47;;;;;;;9.57;3.00;;;14.50;75.20;;;;;;5033674;28;20467;-71
2021/10/07 02:19:13;;;;;;;12.77;3.50;;;14.50;75.20;;;;;;5031797;28;20025;-71
2021/10/07 02:21:39;;;;;;;6.55;3.67;;;14.40;75.10;;;;;;5032413;28;20036;-71
2021/10/07 02:24:05;;;;;;;26.67;13.65;;;14.50;75.50;;;;;;5037602;28;20037;-75
2021/10/07 02:26:31;;;;;;;23.30;10.05;;;14.60;75.30;;;;;;5032648;28;20022;-74
2021/10/07 02:28:56;;;;;;;12.55;6.95;;;14.60;75.00;;;;;;5031927;28;20075;-75
2021/10/07 02:31:22;;;;;;;15.18;7.55;;;14.60;74.60;;;;;;5039780;28;20025;-74
2021/10/07 02:33:49;;;;;;;13.45;6.47;;;14.60;74.40;;;;;;5039405;28;20041;-75
2021/10/07 02:36:15;;;;;;;18.15;9.68;;;14.60;74.60;;;;;;5032002;28;20108;-74
2021/10/07 02:38:42;;;;;;;7.30;3.30;;;14.60;74.70;;;;;;5033332;28;20063;-74
2021/10/07 02:41:07;;;;;;;8.05;2.97;;;14.60;74.70;;;;;;5031484;28;20493;-74
2021/10/07 02:43:33;;;;;;;10.40;3.58;;;14.60;74.30;;;;;;5031830;28;20128;-75
2021/10/07 02:45:59;;;;;;;16.75;8.20;;;14.60;74.50;;;;;;5030571;28;20025;-74
2021/10/07 02:48:25;;;;;;;6.28;3.05;;;14.60;74.60;;;;;;5028853;28;20095;-74
2021/10/07 02:50:51;;;;;;;6.40;3.75;;;14.70;74.80;;;;;;5034779;28;20044;-75
2021/10/07 02:53:16;;;;;;;9.88;5.00;;;14.70;74.70;;;;;;5034209;28;20021;-73
2021/10/07 02:55:42;;;;;;;5.43;3.40;;;14.70;74.80;;;;;;5036752;28;20031;-74
2021/10/07 02:58:08;;;;;;;8.95;4.18;;;14.80;74.70;;;;;;5035256;28;20026;-72
2021/10/07 03:00:34;;;;;;;6.70;3.65;;;14.70;74.50;;;;;;5021148;28;20385;-74
2021/10/07 03:02:59;;;;;;;6.03;3.83;;;14.70;74.80;;;;;;5036810;28;20040;-73
2021/10/07 03:05:25;;;;;;;5.32;3.47;;;14.70;75.00;;;;;;5031220;28;20033;-72
2021/10/07 03:07:51;;;;;;;7.82;3.80;;;14.70;75.20;;;;;;5023672;28;20029;-72
2021/10/07 03:10:20;;;;;;;14.48;4.40;;;14.80;75.00;;;;;;5033654;28;20017;-73
2021/10/07 03:12:46;;;;;;;9.43;4.15;;;14.80;75.10;;;;;;5042600;28;20382;-73
2021/10/07 03:15:12;;;;;;;7.43;3.70;;;14.80;75.00;;;;;;5036592;28;20039;-74
2021/10/07 03:17:38;;;;;;;6.25;4.20;;;14.80;75.20;;;;;;5034749;28;20188;-73
2021/10/07 03:20:07;;;;;;;8.02;4.72;;;14.80;75.30;;;;;;5039419;28;20128;-73
2021/10/07 03:22:33;;;;;;;9.77;4.63;;;14.80;75.50;;;;;;5040066;28;20036;-72
2021/10/07 03:24:59;;;;;;;7.45;4.20;;;14.80;75.60;;;;;;5044323;28;20175;-74
2021/10/07 03:27:26;;;;;;;6.95;4.68;;;14.80;75.70;;;;;;5035440;28;20497;-74
2021/10/07 03:29:52;;;;;;;7.75;4.20;;;14.80;75.90;;;;;;5039262;28;20050;-71
2021/10/07 03:32:18;;;;;;;9.05;4.63;;;14.80;76.00;;;;;;5032212;28;20137;-74
2021/10/07 03:34:44;;;;;;;6.43;4.30;;;14.80;76.00;;;;;;5042286;28;20029;-75
2021/10/07 03:37:10;;;;;;;6.97;4.90;;;14.80;76.10;;;;;;5032863;28;20017;-74
2021/10/07 03:39:36;;;;;;;9.25;4.75;;;14.80;76.20;;;;;;5042614;28;20099;-73
2021/10/07 03:42:01;;;;;;;8.05;5.10;;;14.80;76.40;;;;;;5044600;28;20022;-75
2021/10/07 03:44:28;;;;;;;8.57;4.53;;;14.80;76.50;;;;;;5039245;28;20041;-75
2021/10/07 03:46:54;;;;;;;8.63;4.63;;;14.80;76.50;;;;;;5043591;28;20021;-73
2021/10/07 03:49:20;;;;;;;10.23;4.60;;;14.80;76.40;;;;;;5029489;28;20134;-73
2021/10/07 03:51:45;;;;;;;6.65;4.90;;;14.80;76.60;;;;;;5051379;28;20029;-75
2021/10/07 03:54:11;;;;;;;7.80;5.00;;;14.90;76.60;;;;;;5041346;28;20046;-68
2021/10/07 03:56:39;;;;;;;6.65;4.90;;;14.90;76.60;;;;;;5030819;28;20048;-74
2021/10/07 03:59:05;;;;;;;6.80;4.25;;;14.80;76.50;;;;;;5031159;28;20367;-75
2021/10/07 04:01:31;;;;;;;7.63;4.68;;;14.90;76.50;;;;;;5030131;28;20443;-72
2021/10/07 04:03:57;;;;;;;11.07;3.95;;;14.90;76.50;;;;;;5031445;28;20061;-75
2021/10/07 04:06:24;;;;;;;5.20;4.07;;;14.90;76.50;;;;;;5031677;28;20112;-75
2021/10/07 04:08:49;;;;;;;7.05;3.83;;;14.90;76.10;;;;;;5020262;28;20474;-74
2021/10/07 04:11:15;;;;;;;6.57;3.72;;;15.00;76.40;;;;;;5031082;28;20029;-75
2021/10/07 04:13:41;;;;;;;6.43;4.28;;;15.00;76.40;;;;;;5032484;28;20437;-75
2021/10/07 04:16:08;;;;;;;6.22;3.70;;;15.00;76.40;;;;;;5033053;28;20463;-75
2021/10/07 04:18:34;;;;;;;5.47;3.50;;;15.00;76.40;;;;;;5033247;28;20026;-76
2021/10/07 04:21:00;;;;;;;5.30;3.35;;;15.00;76.20;;;;;;5032280;28;20213;-74
2021/10/07 04:23:26;;;;;;;5.10;3.03;;;15.00;76.00;;;;;;5032497;28;20037;-74
2021/10/07 04:25:52;;;;;;;6.63;3.40;;;15.10;76.00;;;;;;5030935;28;20534;-75
2021/10/07 04:28:18;;;;;;;4.57;2.95;;;15.10;75.90;;;;;;5032257;28;20096;-76
2021/10/07 04:30:44;;;;;;;4.20;2.88;;;15.00;75.80;;;;;;5023367;28;20053;-74
2021/10/07 04:33:12;;;;;;;4.30;3.25;;;15.00;75.90;;;;;;5020339;28;20142;-69
2021/10/07 04:35:39;;;;;;;4.20;2.70;;;15.00;76.00;;;;;;5031918;28;20053;-74
2021/10/07 04:38:07;;;;;;;4.22;2.38;;;15.00;76.00;;;;;;5017760;28;20029;-75
2021/10/07 04:40:34;;;;;;;5.28;2.80;;;14.90;75.90;;;;;;5033265;28;20079;-76
2021/10/07 04:43:00;;;;;;;4.47;2.90;;;14.90;76.00;;;;;;5033340;28;20073;-76
2021/10/07 04:45:26;;;;;;;4.85;2.70;;;15.00;76.20;;;;;;5036579;28;20458;-73
2021/10/07 04:47:52;;;;;;;5.70;3.13;;;15.00;76.30;;;;;;5033498;28;20111;-74
2021/10/07 04:50:18;;;;;;;4.95;2.80;;;15.00;76.40;;;;;;5032199;28;20087;-76
2021/10/07 04:52:44;;;;;;;4.82;2.70;;;15.00;76.50;;;;;;5049087;28;20036;-74
2021/10/07 04:55:10;;;;;;;4.15;2.40;;;15.00;76.50;;;;;;5042269;28;20061;-74
2021/10/07 04:57:36;;;;;;;3.20;2.30;;;15.00;76.50;;;;;;5033168;28;20033;-76
2021/10/07 05:00:04;;;;;;;6.03;3.25;;;15.00;76.50;;;;;;5033068;28;20034;-74
2021/10/07 05:02:30;;;;;;;4.22;3.00;;;15.00;76.60;;;;;;5031410;28;20041;-73
2021/10/07 05:04:56;;;;;;;4.75;2.50;;;15.00;76.50;;;;;;5031934;28;20037;-75
2021/10/07 05:07:22;;;;;;;6.53;2.75;;;15.00;76.60;;;;;;5032491;28;20025;-75
2021/10/07 05:09:47;;;;;;;3.47;2.55;;;15.00;76.60;;;;;;5030397;28;20075;-75
2021/10/07 05:12:13;;;;;;;4.75;2.47;;;15.00;76.60;;;;;;5031648;28;20091;-74
2021/10/07 05:14:39;;;;;;;5.45;3.33;;;15.00;76.60;;;;;;5032068;28;20040;-73
2021/10/07 05:17:05;;;;;;;4.80;2.60;;;15.00;76.80;;;;;;5031066;28;20060;-73
2021/10/07 05:19:30;;;;;;;3.28;2.40;;;15.10;77.00;;;;;;5031952;28;20198;-74
2021/10/07 05:21:56;;;;;;;3.63;2.20;;;15.00;76.60;;;;;;5032862;28;20025;-73
2021/10/07 05:24:22;;;;;;;3.75;2.17;;;15.00;76.60;;;;;;5031640;28;20035;-72
2021/10/07 05:26:48;;;;;;;3.25;2.15;;;15.00;76.60;;;;;;5031486;28;20021;-68
2021/10/07 05:29:13;;;;;;;2.63;2.20;;;15.00;76.60;;;;;;5031401;28;20025;-73
2021/10/07 05:31:39;;;;;;;3.95;2.78;;;15.00;76.60;;;;;;5032337;28;20371;-68
2021/10/07 05:34:05;;;;;;;3.13;2.33;;;15.10;76.80;;;;;;5031959;28;20079;-70
2021/10/07 05:36:31;;;;;;;5.20;2.65;;;15.10;76.80;;;;;;5031466;28;20033;-69
2021/10/07 05:38:57;;;;;;;5.05;2.28;;;15.10;76.80;;;;;;5032130;28;20032;-70
2021/10/07 05:41:23;;;;;;;6.25;2.55;;;15.10;76.90;;;;;;5031372;28;20025;-70
2021/10/07 05:43:49;;;;;;;5.22;2.95;;;15.10;77.00;;;;;;5031935;28;20102;-68
2021/10/07 05:46:15;;;;;;;5.40;2.30;;;15.20;77.10;;;;;;5031186;28;20021;-69
2021/10/07 05:48:40;;;;;;;3.78;2.80;;;15.10;77.00;;;;;;5031491;28;20481;-70
2021/10/07 05:51:06;;;;;;;10.43;3.10;;;15.10;76.90;;;;;;5032154;28;20474;-69
2021/10/07 05:53:32;;;;;;;32.45;5.30;;;15.10;77.00;;;;;;5029512;28;20536;-68
2021/10/07 05:55:58;;;;;;;7.28;2.78;;;15.10;77.00;;;;;;5013903;28;20064;-69
2021/10/07 05:58:24;;;;;;;16.33;3.85;;;15.10;77.10;;;;;;5029947;28;20026;-69
2021/10/07 06:00:49;;;;;;;13.18;2.72;;;15.20;77.30;;;;;;5031601;28;20481;-70
2021/10/07 06:03:15;;;;;;;12.23;2.55;;;15.20;77.20;;;;;;5031233;28;20034;-67
2021/10/07 06:05:41;;;;;;;4.25;2.22;;;15.20;77.30;;;;;;5031411;28;20021;-68
2021/10/07 06:08:07;;;;;;;4.53;2.28;;;15.30;77.00;;;;;;5031672;28;20030;-70
2021/10/07 06:10:34;;;;;;;3.92;2.17;;;15.20;76.60;;;;;;5030770;28;20025;-69
2021/10/07 06:13:00;;;;;;;6.05;2.30;;;15.20;76.50;;;;;;5013957;28;20021;-68
2021/10/07 06:15:27;;;;;;;4.25;1.90;;;15.20;76.50;;;;;;5030922;28;20030;-70
2021/10/07 06:17:55;;;;;;;2.53;1.83;;;15.20;76.50;;;;;;5031349;28;20037;-71
2021/10/07 06:20:31;;;;;;;4.88;2.00;;;15.30;76.50;;;;;;5031462;28;20032;-69
2021/10/07 06:22:58;;;;;;;2.83;2.00;;;15.30;76.30;;;;;;5017943;28;20025;-69
2021/10/07 06:25:24;;;;;;;3.13;1.98;;;15.30;76.10;;;;;;5034554;28;20033;-69
2021/10/07 06:27:50;;;;;;;3.40;1.90;;;15.30;76.20;;;;;;5040090;28;20467;-69
2021/10/07 06:30:18;;;;;;;5.22;1.88;;;15.30;76.00;;;;;;5054506;28;20032;-68
2021/10/07 06:32:44;;;;;;;3.35;2.10;;;15.30;76.10;;;;;;5049283;28;20474;-70
2021/10/07 06:35:11;;;;;;;3.17;1.90;;;15.30;75.90;;;;;;5047424;28;20156;-70
2021/10/07 06:37:36;;;;;;;9.65;2.90;;;15.30;76.00;;;;;;5032335;28;20310;-73
2021/10/07 06:40:04;;;;;;;8.45;3.65;;;15.30;76.10;;;;;;5018047;28;20459;-69
2021/10/07 06:42:30;;;;;;;5.05;2.38;;;15.30;76.10;;;;;;5036708;28;20036;-68
2021/10/07 06:44:56;;;;;;;3.22;2.10;;;15.30;76.10;;;;;;5023944;28;20402;-67
2021/10/07 06:47:22;;;;;;;3.97;2.22;;;15.40;76.00;;;;;;5032955;28;20117;-68
2021/10/07 06:49:48;;;;;;;6.82;2.13;;;15.40;76.20;;;;;;5033186;28;20029;-67
2021/10/07 06:52:14;;;;;;;4.65;1.92;;;15.40;76.00;;;;;;5034772;28;20022;-68
2021/10/07 06:54:39;;;;;;;3.75;2.20;;;15.40;76.00;;;;;;5016252;28;20136;-68
2021/10/07 06:57:05;;;;;;;3.95;2.10;;;15.50;76.10;;;;;;5016781;28;20124;-67
2021/10/07 06:59:31;;;;;;;6.32;2.00;;;15.40;76.20;;;;;;5032851;28;20105;-68
2021/10/07 07:01:57;;;;;;;3.90;1.92;;;15.50;76.40;;;;;;5033278;28;20083;-66
2021/10/07 07:04:22;;;;;;;5.10;2.72;;;15.50;76.30;;;;;;5032908;28;20112;-69
2021/10/07 07:06:50;;;;;;;6.75;2.58;;;15.50;76.20;;;;;;5037062;28;20439;-68
2021/10/07 07:09:16;;;;;;;4.13;2.42;;;15.50;76.40;;;;;;5033720;28;20402;-70
2021/10/07 07:11:43;;;;;;;3.97;2.30;;;15.50;76.50;;;;;;5048980;28;20025;-67
2021/10/07 07:14:09;;;;;;;5.93;2.50;;;15.60;76.40;;;;;;5033667;28;20091;-68
2021/10/07 07:16:35;;;;;;;7.70;3.10;;;15.60;76.40;;;;;;5032853;28;20026;-67
2021/10/07 07:19:01;;;;;;;3.38;2.50;;;15.70;76.40;;;;;;5030093;28;20033;-67
2021/10/07 07:21:33;;;;;;;6.53;2.83;;;15.70;76.20;;;;;;5036724;28;20064;-66
2021/10/07 07:24:00;;;;;;;4.13;2.78;;;15.70;76.00;;;;;;5043400;28;20029;-66
2021/10/07 07:26:27;;;;;;;4.00;2.85;;;15.70;76.20;;;;;;5020931;28;20040;-66
2021/10/07 07:28:53;;;;;;;7.55;2.80;;;15.80;76.30;;;;;;5035960;28;20060;-71
2021/10/07 07:31:20;;;;;;;13.63;3.92;;;15.80;76.10;;;;;;5046827;28;20018;-66
2021/10/07 07:33:47;;;;;;;5.25;2.80;;;15.80;76.10;;;;;;5021773;28;20047;-64
2021/10/07 07:36:16;;;;;;;9.10;3.45;;;15.80;76.10;;;;;;5041207;28;20026;-62
2021/10/07 07:38:42;;;;;;;5.13;3.35;;;15.80;76.10;;;;;;5029662;28;20430;-64
2021/10/07 07:41:13;;;;;;;8.10;3.30;;;15.80;76.10;;;;;;5017757;28;20025;-64
2021/10/07 07:43:40;;;;;;;11.85;4.07;;;15.90;76.20;;;;;;5045419;28;20233;-64
2021/10/07 07:46:06;;;;;;;5.25;3.53;;;15.90;76.30;;;;;;5043514;28;20021;-62
2021/10/07 07:48:32;;;;;;;5.40;3.20;;;15.90;76.30;;;;;;5038592;28;20029;-63
2021/10/07 07:50:59;;;;;;;5.25;3.80;;;15.90;76.30;;;;;;5049346;28;20060;-62
2021/10/07 07:53:24;;;;;;;8.65;5.80;;;15.90;76.30;;;;;;5037153;28;20083;-64
2021/10/07 07:55:50;;;;;;;7.93;4.03;;;15.90;76.10;;;;;;5044851;28;20483;-64
2021/10/07 07:58:20;;;;;;;8.13;3.97;;;15.90;75.90;;;;;;5044773;28;20096;-64
2021/10/07 08:00:46;;;;;;;10.00;3.78;;;15.90;75.90;;;;;;5035328;28;20033;-64
2021/10/07 08:03:12;;;;;;;10.32;4.32;;;16.00;76.20;;;;;;5031489;28;20022;-63
2021/10/07 08:05:38;;;;;;;13.80;4.57;;;15.90;76.10;;;;;;5039011;28;20071;-65
2021/10/07 08:08:05;;;;;;;7.72;4.60;;;16.00;76.30;;;;;;5024987;28;20467;-63
2021/10/07 08:10:49;;;;;;;6.57;4.13;;;16.00;76.20;;;;;;5046482;28;20025;-64
2021/10/07 08:13:16;;;;;;;9.45;6.28;;;16.00;76.20;;;;;;5036264;28;20021;-64
2021/10/07 08:15:42;;;;;;;13.35;5.18;;;16.10;76.20;;;;;;5045153;28;20084;-64
2021/10/07 08:18:08;;;;;;;6.20;3.97;;;16.10;76.10;;;;;;5025281;28;20029;-64
2021/10/07 08:20:36;;;;;;;6.45;3.83;;;16.10;76.00;;;;;;5037486;28;20076;-62
2021/10/07 08:23:02;;;;;;;8.18;4.53;;;16.20;76.00;;;;;;5047617;28;20032;-63
2021/10/07 08:25:28;;;;;;;4.75;3.72;;;16.20;76.00;;;;;;5037216;28;20024;-62
2021/10/07 08:27:54;;;;;;;6.45;3.60;;;16.20;75.70;;;;;;5043930;28;20104;-67
2021/10/07 08:30:39;;;;;;;4.93;3.30;;;16.30;76.20;;;;;;5044349;28;20032;-62
2021/10/07 08:33:05;;;;;;;4.32;3.47;;;16.30;75.40;;;;;;5018183;28;20025;-63
2021/10/07 08:35:32;;;;;;;7.43;4.18;;;16.40;75.20;;;;;;5044832;28;20124;-62
2021/10/07 08:37:58;;;;;;;4.90;3.58;;;16.40;75.10;;;;;;5024045;28;20039;-61
2021/10/07 08:40:23;;;;;;;6.13;4.03;;;16.40;75.00;;;;;;5038557;28;20479;-63
2021/10/07 08:42:50;;;;;;;7.32;3.63;;;16.40;74.80;;;;;;5047284;28;20056;-64
2021/10/07 08:45:16;;;;;;;4.78;3.90;;;16.40;74.80;;;;;;5035091;28;20036;-64
2021/10/07 08:47:45;;;;;;;8.05;4.20;;;16.40;74.80;;;;;;5026899;28;20105;-67
2021/10/07 08:50:14;;;;;;;9.63;5.13;;;16.40;74.60;;;;;;5043172;28;20017;-68
2021/10/07 08:52:40;;;;;;;6.13;4.38;;;16.40;74.60;;;;;;5018422;28;20029;-67
2021/10/07 08:55:06;;;;;;;6.03;4.20;;;16.40;74.70;;;;;;5030362;28;20388;-65
2021/10/07 08:57:33;;;;;;;5.05;3.70;;;16.50;74.60;;;;;;5033639;28;20079;-65
2021/10/07 08:59:59;;;;;;;14.45;5.35;;;16.50;74.40;;;;;;5040337;28;20048;-66
2021/10/07 09:02:30;;;;;;;7.90;4.53;;;16.50;74.40;;;;;;5038428;28;20060;-65
2021/10/07 09:05:12;;;;;;;5.43;4.43;;;16.60;74.40;;;;;;5031658;28;20021;-70
2021/10/07 09:07:57;;;;;;;5.78;4.60;;;16.60;74.50;;;;;;5032485;28;20051;-66
2021/10/07 09:10:46;;;;;;;7.30;5.07;;;16.60;74.30;;;;;;5029760;28;20057;-68
2021/10/07 09:13:22;;;;;;;9.02;5.63;;;16.60;74.30;;;;;;5031641;28;20481;-64
2021/10/07 09:15:50;;;;;;;6.63;5.90;;;16.50;74.40;;;;;;5027843;28;20044;-67
2021/10/07 09:18:18;;;;;;;11.07;5.88;;;16.50;74.50;;;;;;5028455;28;20121;-64
2021/10/07 09:20:47;;;;;;;10.00;6.85;;;16.50;74.50;;;;;;5029484;28;20032;-65
2021/10/07 09:23:19;;;;;;;10.45;8.05;;;16.50;74.60;;;;;;5012623;28;20025;-67
2021/10/07 09:26:07;;;;;;;11.98;9.43;;;16.40;74.70;;;;;;5028485;28;20039;-63
2021/10/07 09:28:48;;;;;;;14.05;8.25;;;16.40;75.00;;;;;;5029303;28;20021;-62
2021/10/07 09:31:14;;;;;;;10.32;7.70;;;16.40;75.10;;;;;;5030476;28;20013;-64
2021/10/07 09:33:43;;;;;;;9.95;8.07;;;16.40;75.10;;;;;;5012879;28;20056;-64
2021/10/07 09:36:17;;;;;;;15.57;8.63;;;16.50;75.30;;;;;;5013421;28;20036;-66
2021/10/07 09:38:44;;;;;;;;;;;16.50;75.40;;;;;;5031594;28;20043;-65
2021/10/07 09:41:21;;;;;;;9.73;7.45;;;16.60;75.50;;;;;;5031276;28;19905;-66
2021/10/07 09:43:53;;;;;;;9.63;7.80;;;16.70;75.20;;;;;;5030704;28;20140;-64
2021/10/07 09:46:39;;;;;;;10.60;7.90;;;16.80;74.80;;;;;;5030351;28;20040;-62
2021/10/07 09:49:09;;;;;;;10.48;8.18;;;16.90;74.40;;;;;;5013843;28;20056;-65
2021/10/07 09:51:44;;;;;;;10.75;8.65;;;17.00;74.30;;;;;;5028418;28;20037;-64
2021/10/07 09:54:14;;;;;;;9.80;8.43;;;17.00;74.00;;;;;;5024013;28;20037;-68
2021/10/07 09:56:40;;;;;;;8.40;7.60;;;17.10;73.80;;;;;;5044371;28;20021;-67
2021/10/07 09:59:08;;;;;;;10.93;8.20;;;17.00;73.40;;;;;;5033177;28;20025;-65
2021/10/07 10:01:35;;;;;;;10.77;9.40;;;17.00;73.80;;;;;;5032273;28;20045;-65
2021/10/07 10:04:02;;;;;;;9.80;8.77;;;17.10;73.50;;;;;;5022894;28;20509;-63
2021/10/07 10:06:28;;;;;;;11.80;8.95;;;17.10;73.30;;;;;;5044065;28;20158;-60
2021/10/07 10:08:53;;;;;;;12.25;9.40;;;17.10;73.20;;;;;;5032354;28;20036;-61
2021/10/07 10:11:20;;;;;;;10.85;9.80;;;17.00;73.50;;;;;;5030960;28;20030;-62
2021/10/07 10:13:48;;;;;;;11.27;9.63;;;17.00;73.80;;;;;;5037862;28;20212;-63
2021/10/07 10:16:18;;;;;;;11.43;8.77;;;17.00;73.90;;;;;;5036935;28;20026;-62
2021/10/07 10:18:58;;;;;;;9.63;8.63;;;17.00;73.90;;;;;;5030296;28;20071;-62
2021/10/07 10:21:27;;;;;;;9.82;8.82;;;17.00;74.10;;;;;;5019702;28;20079;-60
2021/10/07 10:23:54;;;;;;;10.30;8.68;;;17.10;73.90;;;;;;5023585;28;20112;-61
2021/10/07 10:26:20;;;;;;;8.90;8.00;;;17.00;73.60;;;;;;5025481;28;20466;-61
2021/10/07 10:28:53;;;;;;;9.73;8.65;;;17.10;73.50;;;;;;5034038;28;20335;-61
2021/10/07 10:31:40;;;;;;;10.32;8.05;;;17.20;73.60;;;;;;5013137;28;20040;-63
2021/10/07 10:34:13;;;;;;;11.18;7.20;;;17.10;73.10;;;;;;5023122;28;20076;-62
2021/10/07 10:36:52;;;;;;;9.55;8.52;;;17.10;73.00;;;;;;5032044;28;20474;-62
2021/10/07 10:39:47;;;;;;;8.38;7.32;;;17.00;72.80;;;;;;5010604;28;20109;-62
2021/10/07 10:42:15;;;;;;;11.02;7.93;;;17.10;73.10;;;;;;4915054;29;20035;-63
2021/10/07 10:44:57;;;;;;;12.30;8.38;;;17.00;73.00;;;;;;4928873;29;20496;-64
2021/10/07 10:47:24;;;;;;;11.82;6.88;;;17.00;72.90;;;;;;4932415;29;20481;-63
2021/10/07 10:49:58;;;;;;;12.43;7.82;;;17.00;73.10;;;;;;4931567;28;20081;-70
2021/10/07 10:52:29;;;;;;;7.80;6.82;;;17.00;73.10;;;;;;4933560;29;20031;-65
2021/10/07 10:55:03;;;;;;;9.35;6.32;;;17.10;73.20;;;;;;4944307;29;20416;-66
2021/10/07 10:57:33;;;;;;;8.93;6.53;;;17.10;72.90;;;;;;4946295;28;20043;-71
2021/10/07 11:00:08;;;;;;;9.30;6.28;;;17.20;72.30;;;;;;4935480;29;20035;-64
2021/10/07 11:02:35;;;;;;;9.10;7.07;;;17.20;72.30;;;;;;4958778;28;20061;-68
2021/10/07 11:05:18;;;;;;;11.20;7.85;;;17.20;72.20;;;;;;4933080;29;20103;-67
2021/10/07 11:07:45;;;;;;;10.85;6.40;;;17.20;71.90;;;;;;4952543;28;20038;-65
2021/10/07 11:10:26;;;;;;;7.45;6.38;;;17.10;71.80;;;;;;4935734;28;20058;-65
2021/10/07 11:12:56;;;;;;;6.95;6.28;;;17.10;71.90;;;;;;4934611;28;20500;-68
2021/10/07 11:15:29;;;;;;;9.15;7.03;;;17.00;72.00;;;;;;4940406;29;20031;-69
2021/10/07 11:17:56;;;;;;;11.15;7.40;;;17.10;72.40;;;;;;4954151;28;20030;-66
2021/10/07 11:20:33;;;;;;;9.93;7.43;;;17.10;72.40;;;;;;5031116;28;20017;-65
2021/10/07 11:23:07;;;;;;;7.93;7.15;;;17.10;72.40;;;;;;5041337;28;20028;-63
2021/10/07 11:25:45;;;;;;;10.00;6.80;;;17.10;72.40;;;;;;5025656;28;21158;-63
2021/10/07 11:28:11;;;;;;;15.10;7.70;;;17.10;72.30;;;;;;5017898;28;20028;-67
2021/10/07 11:30:40;;;;;;;11.32;8.32;;;17.00;72.50;;;;;;5027585;28;20032;-65
2021/10/07 11:33:08;;;;;;;9.23;8.32;;;17.10;72.70;;;;;;5044099;28;20025;-68
2021/10/07 11:36:00;;;;;;;16.50;8.13;;;17.10;72.60;;;;;;5034555;28;20048;-68
2021/10/07 11:38:27;;;;;;;13.30;8.40;;;17.10;72.80;;;;;;5005215;28;20024;-65
2021/10/07 11:40:54;;;;;;;11.68;8.38;;;17.10;72.50;;;;;;5029843;28;20037;-62
2021/10/07 11:43:29;;;;;;;14.43;10.63;;;17.10;72.40;;;;;;5038089;28;20048;-66
2021/10/07 11:45:57;;;;;;;11.05;9.00;;;17.10;72.30;;;;;;5038758;28;20052;-64
2021/10/07 11:48:25;;;;;;;14.95;8.75;;;17.10;72.20;;;;;;5031032;28;20025;-64
2021/10/07 11:50:55;;;;;;;10.70;9.65;;;17.10;72.40;;;;;;5030992;28;20168;-64
2021/10/07 11:53:41;;;;;;;10.50;9.50;;;17.10;72.60;;;;;;5030804;28;20025;-67
2021/10/07 11:59:01;;;;;;;11.27;10.07;;;17.20;72.70;;;;;;5031484;28;20417;-67
2021/10/07 12:01:37;;;;;;;14.73;10.50;;;17.30;72.40;;;;;;5041499;28;20419;-68
2021/10/07 12:04:05;;;;;;;9.40;8.50;;;17.30;72.20;;;;;;5033935;28;20088;-68
2021/10/07 12:06:34;;;;;;;12.30;9.18;;;17.40;72.10;;;;;;5046763;28;20119;-67
2021/10/07 12:09:02;;;;;;;11.40;8.93;;;17.40;71.90;;;;;;5038932;28;20020;-68
2021/10/07 12:11:31;;;;;;;9.88;8.88;;;17.40;71.90;;;;;;5024394;28;20034;-67
2021/10/07 12:13:59;;;;;;;9.63;8.60;;;17.40;71.80;;;;;;5046379;28;20033;-68
2021/10/07 12:16:40;;;;;;;12.55;9.13;;;17.40;71.90;;;;;;5034364;28;20029;-68
2021/10/07 12:19:11;;;;;;;12.52;8.10;;;17.40;72.00;;;;;;5016646;28;20055;-68
2021/10/07 12:21:41;;;;;;;11.32;9.02;;;17.40;72.00;;;;;;5030690;28;20021;-68
2021/10/07 12:24:08;;;;;;;9.35;8.35;;;17.60;72.00;;;;;;5032050;28;20053;-75
2021/10/07 12:26:47;;;;;;;11.02;8.45;;;17.60;71.80;;;;;;5031093;28;20048;-75
2021/10/07 12:29:21;;;;;;;11.48;8.25;;;17.70;71.50;;;;;;5048798;28;20071;-73
2021/10/07 12:32:11;;;;;;;9.75;7.95;;;17.70;71.10;;;;;;5050057;28;20029;-73
2021/10/07 12:34:40;;;;;;;11.10;7.82;;;17.60;71.10;;;;;;5051084;28;20469;-75
2021/10/07 12:37:09;;;;;;;12.30;8.00;;;17.70;71.20;;;;;;5052313;28;20025;-72
2021/10/07 12:39:38;;;;;;;9.27;6.15;;;17.60;71.00;;;;;;5050923;28;20075;-72
2021/10/07 12:42:15;;;;;;;11.00;7.75;;;17.60;71.10;;;;;;5035000;28;20029;-73
2021/10/07 12:44:44;;;;;;;10.57;6.63;;;17.60;71.30;;;;;;5051808;28;20159;-74
2021/10/07 12:47:17;;;;;;;9.07;6.90;;;17.50;71.20;;;;;;5034980;28;20032;-74
2021/10/07 12:49:50;;;;;;;8.40;6.90;;;17.50;71.30;;;;;;5033776;28;20511;-72
2021/10/07 12:52:21;;;;;;;10.77;7.40;;;17.50;71.40;;;;;;5053301;28;20033;-74
2021/10/07 12:54:57;;;;;;;10.27;7.32;;;17.50;71.70;;;;;;5050252;28;20044;-74
2021/10/07 12:57:35;;;;;;;8.35;7.03;;;17.50;72.00;;;;;;5052509;28;20378;-70
2021/10/07 13:00:02;;;;;;;11.90;8.80;;;17.50;72.00;;;;;;5052219;28;20025;-71
2021/10/07 13:02:32;;;;;;;8.13;7.32;;;17.50;71.80;;;;;;5051802;28;20029;-71